AAY2935 KSBN-KSFB
Flight info
| Callsign | AAY2935 |
|---|---|
| Flight time | 2h 10m |
| Altitude | 37000 |
| Route | GOTNE SARGO SOGEE/N0452F360 Q65 LORNN/N0444F370 Q65 KERLY KYLEG TTHOR3 |
| Aircraft | A320/M-SDE3FGHIRWY/LB1 |
Departure
| Time | 2026-05-08 23:18 |
|---|---|
| Airport | South Bend International Airport (KSBN) |
Arrival
| Time | 2026-05-09 01:28 |
|---|---|
| Airport | Orlando Sanford International Airport (KSFB) |
| Time | Latitude | Longitude | Altitude | Speed | Heading |
|---|---|---|---|---|---|
| 2026-05-08 22:58 | 41.70251 | -86.31203 | 781 ft | 1 kts | 94° |
| 2026-05-08 23:12 | 41.70251 | -86.31196 | 781 ft | 5 kts | 94° |
| 2026-05-08 23:13 | 41.70249 | -86.31091 | 782 ft | 13 kts | 90° |
| 2026-05-08 23:13 | 41.70255 | -86.30983 | 782 ft | 11 kts | 73° |
| 2026-05-08 23:13 | 41.70286 | -86.30909 | 782 ft | 8 kts | 61° |
| 2026-05-08 23:13 | 41.70305 | -86.30841 | 783 ft | 11 kts | 81° |
| 2026-05-08 23:14 | 41.70308 | -86.30737 | 782 ft | 11 kts | 88° |
| 2026-05-08 23:14 | 41.70310 | -86.30640 | 781 ft | 10 kts | 89° |
| 2026-05-08 23:14 | 41.70311 | -86.30558 | 781 ft | 8 kts | 87° |
| 2026-05-08 23:14 | 41.70317 | -86.30455 | 782 ft | 20 kts | 85° |
| 2026-05-08 23:15 | 41.70320 | -86.30225 | 779 ft | 26 kts | 89° |
| 2026-05-08 23:15 | 41.70323 | -86.30033 | 778 ft | 18 kts | 89° |
| 2026-05-08 23:15 | 41.70330 | -86.29906 | 778 ft | 11 kts | 72° |
| 2026-05-08 23:15 | 41.70381 | -86.29874 | 780 ft | 7 kts | 1° |
| 2026-05-08 23:16 | 41.70391 | -86.29874 | 780 ft | 0 kts | 359° |
| 2026-05-08 23:16 | 41.70431 | -86.29874 | 779 ft | 11 kts | 0° |
| 2026-05-08 23:16 | 41.70480 | -86.29914 | 779 ft | 9 kts | 278° |
| 2026-05-08 23:17 | 41.70479 | -86.29950 | 779 ft | 0 kts | 268° |
| 2026-05-08 23:17 | 41.70478 | -86.30065 | 779 ft | 44 kts | 269° |
| 2026-05-08 23:17 | 41.70465 | -86.30812 | 781 ft | 113 kts | 269° |
| 2026-05-08 23:17 | 41.70444 | -86.32100 | 861 ft | 155 kts | 267° |
| 2026-05-08 23:18 | 41.70440 | -86.33490 | 1506 ft | 148 kts | 268° |
| 2026-05-08 23:18 | 41.70408 | -86.34855 | 2185 ft | 146 kts | 265° |
| 2026-05-08 23:18 | 41.70323 | -86.36243 | 2568 ft | 160 kts | 264° |
| 2026-05-08 23:18 | 41.70200 | -86.37840 | 2729 ft | 184 kts | 264° |
| 2026-05-08 23:19 | 41.70089 | -86.39666 | 2836 ft | 212 kts | 265° |
| 2026-05-08 23:19 | 41.69964 | -86.41785 | 3072 ft | 239 kts | 265° |
| 2026-05-08 23:19 | 41.69830 | -86.44036 | 3851 ft | 245 kts | 263° |
| 2026-05-08 23:19 | 41.69265 | -86.46191 | 4711 ft | 250 kts | 239° |
| 2026-05-08 23:20 | 41.67977 | -86.47825 | 5562 ft | 260 kts | 212° |
| 2026-05-08 23:20 | 41.66217 | -86.48433 | 6384 ft | 275 kts | 184° |
| 2026-05-08 23:20 | 41.64328 | -86.47780 | 7136 ft | 289 kts | 160° |
| 2026-05-08 23:20 | 41.62498 | -86.46624 | 7918 ft | 293 kts | 159° |
| 2026-05-08 23:21 | 41.60649 | -86.45430 | 8685 ft | 297 kts | 158° |
| 2026-05-08 23:21 | 41.58773 | -86.44217 | 9431 ft | 302 kts | 158° |
| 2026-05-08 23:21 | 41.56868 | -86.42993 | 10062 ft | 311 kts | 159° |
| 2026-05-08 23:21 | 41.54848 | -86.41707 | 10358 ft | 330 kts | 159° |
| 2026-05-08 23:22 | 41.52753 | -86.40376 | 10977 ft | 336 kts | 159° |
| 2026-05-08 23:22 | 41.50624 | -86.39025 | 11666 ft | 341 kts | 159° |
| 2026-05-08 23:22 | 41.48470 | -86.37662 | 12376 ft | 345 kts | 160° |
| 2026-05-08 23:22 | 41.46289 | -86.36281 | 13076 ft | 349 kts | 160° |
| 2026-05-08 23:23 | 41.44083 | -86.34885 | 13729 ft | 353 kts | 160° |
| 2026-05-08 23:23 | 41.41860 | -86.33478 | 14325 ft | 356 kts | 160° |
| 2026-05-08 23:23 | 41.39605 | -86.32054 | 14920 ft | 360 kts | 160° |
| 2026-05-08 23:23 | 41.37329 | -86.30618 | 15528 ft | 364 kts | 160° |
| 2026-05-08 23:24 | 41.35033 | -86.29171 | 16138 ft | 367 kts | 160° |
| 2026-05-08 23:24 | 41.32715 | -86.27709 | 16735 ft | 371 kts | 160° |
| 2026-05-08 23:24 | 41.30373 | -86.26233 | 17325 ft | 374 kts | 160° |
| 2026-05-08 23:24 | 41.28009 | -86.24745 | 17908 ft | 377 kts | 160° |
| 2026-05-08 23:25 | 41.25624 | -86.23245 | 18421 ft | 381 kts | 161° |
| 2026-05-08 23:25 | 41.23218 | -86.21735 | 18905 ft | 385 kts | 161° |
| 2026-05-08 23:25 | 41.20781 | -86.20211 | 19380 ft | 389 kts | 161° |
| 2026-05-08 23:25 | 41.18322 | -86.18672 | 19849 ft | 393 kts | 161° |
| 2026-05-08 23:26 | 41.15831 | -86.17111 | 20304 ft | 398 kts | 161° |
| 2026-05-08 23:26 | 41.13314 | -86.15536 | 20760 ft | 402 kts | 162° |
| 2026-05-08 23:26 | 41.10811 | -86.13970 | 21218 ft | 406 kts | 162° |
| 2026-05-08 23:26 | 41.08245 | -86.12364 | 21667 ft | 410 kts | 162° |
| 2026-05-08 23:27 | 41.05652 | -86.10747 | 22119 ft | 414 kts | 163° |
| 2026-05-08 23:27 | 41.03033 | -86.09118 | 22567 ft | 418 kts | 163° |
| 2026-05-08 23:27 | 41.00389 | -86.07470 | 23027 ft | 422 kts | 163° |
| 2026-05-08 23:27 | 40.97726 | -86.05817 | 23472 ft | 424 kts | 165° |
| 2026-05-08 23:28 | 40.94975 | -86.04511 | 23857 ft | 416 kts | 175° |
| 2026-05-08 23:28 | 40.92168 | -86.03686 | 24284 ft | 413 kts | 178° |
| 2026-05-08 23:28 | 40.89349 | -86.02905 | 24718 ft | 415 kts | 179° |
| 2026-05-08 23:28 | 40.86519 | -86.02120 | 25141 ft | 416 kts | 179° |
| 2026-05-08 23:29 | 40.83681 | -86.01331 | 25552 ft | 418 kts | 179° |
| 2026-05-08 23:29 | 40.80826 | -86.00532 | 25956 ft | 419 kts | 179° |
| 2026-05-08 23:29 | 40.77968 | -85.99729 | 26350 ft | 421 kts | 179° |
| 2026-05-08 23:29 | 40.75094 | -85.98922 | 26735 ft | 423 kts | 179° |
| 2026-05-08 23:30 | 40.72208 | -85.98112 | 27103 ft | 425 kts | 179° |
| 2026-05-08 23:30 | 40.69314 | -85.97304 | 27477 ft | 426 kts | 179° |
| 2026-05-08 23:30 | 40.66404 | -85.96495 | 27837 ft | 428 kts | 179° |
| 2026-05-08 23:30 | 40.63483 | -85.95684 | 28216 ft | 430 kts | 180° |
| 2026-05-08 23:31 | 40.60547 | -85.94868 | 28554 ft | 432 kts | 180° |
| 2026-05-08 23:31 | 40.57609 | -85.94049 | 28878 ft | 433 kts | 180° |
| 2026-05-08 23:31 | 40.54653 | -85.93229 | 29354 ft | 435 kts | 180° |
| 2026-05-08 23:31 | 40.51686 | -85.92410 | 29670 ft | 437 kts | 180° |
| 2026-05-08 23:32 | 40.48700 | -85.91589 | 29991 ft | 438 kts | 180° |
| 2026-05-08 23:32 | 40.45715 | -85.90764 | 30260 ft | 440 kts | 180° |
| 2026-05-08 23:32 | 40.42713 | -85.89929 | 30528 ft | 442 kts | 180° |
| 2026-05-08 23:32 | 40.39701 | -85.89091 | 30800 ft | 443 kts | 180° |
| 2026-05-08 23:33 | 40.36675 | -85.88254 | 31044 ft | 444 kts | 180° |
| 2026-05-08 23:33 | 40.33625 | -85.87414 | 31281 ft | 445 kts | 180° |
| 2026-05-08 23:33 | 40.30616 | -85.86581 | 31623 ft | 444 kts | 180° |
| 2026-05-08 23:33 | 40.27598 | -85.85741 | 31974 ft | 442 kts | 180° |
| 2026-05-08 23:34 | 40.24597 | -85.84912 | 32264 ft | 441 kts | 180° |
| 2026-05-08 23:34 | 40.21601 | -85.84088 | 32621 ft | 439 kts | 180° |
| 2026-05-08 23:34 | 40.18615 | -85.83269 | 32982 ft | 438 kts | 181° |
| 2026-05-08 23:34 | 40.15640 | -85.82453 | 33340 ft | 436 kts | 181° |
| 2026-05-08 23:35 | 40.12675 | -85.81643 | 33691 ft | 435 kts | 181° |
| 2026-05-08 23:35 | 40.09713 | -85.80831 | 34008 ft | 434 kts | 181° |
| 2026-05-08 23:35 | 40.06769 | -85.80025 | 34268 ft | 433 kts | 181° |
| 2026-05-08 23:35 | 40.03819 | -85.79219 | 34498 ft | 432 kts | 181° |
| 2026-05-08 23:36 | 40.00879 | -85.78417 | 34717 ft | 432 kts | 181° |
| 2026-05-08 23:36 | 39.97936 | -85.77614 | 34941 ft | 432 kts | 182° |
| 2026-05-08 23:36 | 39.94997 | -85.76815 | 35160 ft | 431 kts | 182° |
| 2026-05-08 23:36 | 39.92061 | -85.76018 | 35378 ft | 431 kts | 182° |
| 2026-05-08 23:37 | 39.89163 | -85.75229 | 35579 ft | 431 kts | 182° |
| 2026-05-08 23:37 | 39.86232 | -85.74430 | 35785 ft | 430 kts | 182° |
| 2026-05-08 23:37 | 39.83305 | -85.73632 | 35989 ft | 430 kts | 182° |
| 2026-05-08 23:37 | 39.80375 | -85.72835 | 36174 ft | 430 kts | 182° |
| 2026-05-08 23:38 | 39.77451 | -85.72043 | 36352 ft | 429 kts | 182° |
| 2026-05-08 23:38 | 39.74529 | -85.71252 | 36529 ft | 429 kts | 182° |
| 2026-05-08 23:38 | 39.71606 | -85.70460 | 36703 ft | 429 kts | 182° |
| 2026-05-08 23:38 | 39.68687 | -85.69670 | 36878 ft | 429 kts | 182° |
| 2026-05-08 23:39 | 39.62904 | -85.68096 | 36919 ft | 420 kts | 182° |
| 2026-05-08 23:39 | 39.57200 | -85.66557 | 36919 ft | 418 kts | 183° |
| 2026-05-08 23:40 | 39.51502 | -85.65035 | 36355 ft | 417 kts | 183° |
| 2026-05-08 23:40 | 39.48673 | -85.64277 | 35984 ft | 414 kts | 183° |
| 2026-05-08 23:40 | 39.45842 | -85.63518 | 35878 ft | 415 kts | 183° |
| 2026-05-08 23:41 | 39.40179 | -85.62000 | 35898 ft | 416 kts | 183° |
| 2026-05-08 23:41 | 39.34510 | -85.60483 | 35888 ft | 416 kts | 183° |
| 2026-05-08 23:42 | 39.28845 | -85.58968 | 35890 ft | 415 kts | 184° |
| 2026-05-08 23:42 | 39.23189 | -85.57461 | 35890 ft | 415 kts | 184° |
| 2026-05-08 23:43 | 39.17537 | -85.55952 | 35885 ft | 414 kts | 184° |
| 2026-05-08 23:43 | 39.11894 | -85.54448 | 35881 ft | 414 kts | 184° |
| 2026-05-08 23:44 | 39.06260 | -85.52945 | 35887 ft | 413 kts | 184° |
| 2026-05-08 23:44 | 39.00628 | -85.51446 | 35899 ft | 413 kts | 184° |
| 2026-05-08 23:45 | 38.95047 | -85.49963 | 36145 ft | 410 kts | 184° |
| 2026-05-08 23:45 | 38.92220 | -85.49212 | 36403 ft | 408 kts | 184° |
| 2026-05-08 23:45 | 38.89448 | -85.48479 | 36631 ft | 407 kts | 184° |
| 2026-05-08 23:46 | 38.86704 | -85.47763 | 36780 ft | 408 kts | 184° |
| 2026-05-08 23:46 | 38.83922 | -85.47037 | 36908 ft | 409 kts | 184° |
| 2026-05-08 23:46 | 38.78324 | -85.45574 | 36930 ft | 411 kts | 184° |
| 2026-05-08 23:47 | 38.72726 | -85.44098 | 36932 ft | 410 kts | 184° |
| 2026-05-08 23:47 | 38.67133 | -85.42222 | 36928 ft | 431 kts | 172° |
| 2026-05-08 23:48 | 38.61619 | -85.38966 | 36920 ft | 437 kts | 170° |
| 2026-05-08 23:48 | 38.56109 | -85.35689 | 36896 ft | 436 kts | 170° |
| 2026-05-08 23:49 | 38.50604 | -85.32434 | 36911 ft | 435 kts | 170° |
| 2026-05-08 23:49 | 38.45125 | -85.29207 | 36907 ft | 433 kts | 171° |
| 2026-05-08 23:50 | 38.39657 | -85.25995 | 36910 ft | 432 kts | 171° |
| 2026-05-08 23:50 | 38.34196 | -85.22796 | 36918 ft | 431 kts | 171° |
| 2026-05-08 23:51 | 38.28743 | -85.19597 | 36922 ft | 431 kts | 171° |
| 2026-05-08 23:51 | 38.23301 | -85.16407 | 36924 ft | 431 kts | 171° |
| 2026-05-08 23:52 | 38.17854 | -85.13219 | 36924 ft | 430 kts | 171° |
| 2026-05-08 23:52 | 38.12416 | -85.10049 | 36926 ft | 430 kts | 172° |
| 2026-05-08 23:53 | 38.07895 | -85.07421 | 36924 ft | 430 kts | 172° |
| 2026-05-08 23:53 | 38.02462 | -85.04262 | 36922 ft | 430 kts | 172° |
| 2026-05-08 23:54 | 37.97023 | -85.01098 | 36918 ft | 430 kts | 172° |
| 2026-05-08 23:55 | 37.88879 | -84.96372 | 36918 ft | 429 kts | 172° |
| 2026-05-08 23:55 | 37.83442 | -84.93224 | 36938 ft | 429 kts | 172° |
| 2026-05-08 23:56 | 37.78015 | -84.90082 | 36957 ft | 429 kts | 172° |
| 2026-05-08 23:56 | 37.72583 | -84.86952 | 36958 ft | 429 kts | 172° |
| 2026-05-08 23:57 | 37.67152 | -84.83840 | 36959 ft | 428 kts | 172° |
| 2026-05-08 23:57 | 37.61728 | -84.80727 | 36958 ft | 429 kts | 172° |
| 2026-05-08 23:58 | 37.56299 | -84.77608 | 36960 ft | 429 kts | 172° |
| 2026-05-08 23:58 | 37.50907 | -84.74522 | 36962 ft | 428 kts | 172° |
| 2026-05-08 23:59 | 37.45481 | -84.71418 | 36960 ft | 428 kts | 172° |
| 2026-05-08 23:59 | 37.40054 | -84.68317 | 36952 ft | 428 kts | 172° |
| 2026-05-09 00:00 | 37.34631 | -84.65222 | 36962 ft | 428 kts | 172° |
| 2026-05-09 00:00 | 37.29211 | -84.62143 | 36943 ft | 427 kts | 172° |
| 2026-05-09 00:01 | 37.23795 | -84.59067 | 36949 ft | 427 kts | 172° |
| 2026-05-09 00:01 | 37.18383 | -84.55992 | 36941 ft | 427 kts | 172° |
| 2026-05-09 00:02 | 37.12968 | -84.52920 | 36938 ft | 427 kts | 173° |
| 2026-05-09 00:02 | 37.07556 | -84.49861 | 36940 ft | 427 kts | 173° |
| 2026-05-09 00:03 | 37.02145 | -84.46810 | 36945 ft | 427 kts | 173° |
| 2026-05-09 00:03 | 36.96729 | -84.43759 | 36943 ft | 427 kts | 173° |
| 2026-05-09 00:04 | 36.91319 | -84.40709 | 36960 ft | 427 kts | 173° |
| 2026-05-09 00:04 | 36.85903 | -84.37667 | 36961 ft | 427 kts | 173° |
| 2026-05-09 00:05 | 36.80521 | -84.34648 | 36958 ft | 427 kts | 173° |
| 2026-05-09 00:05 | 36.75064 | -84.31584 | 36956 ft | 427 kts | 173° |
| 2026-05-09 00:06 | 36.69687 | -84.28575 | 36959 ft | 427 kts | 174° |
| 2026-05-09 00:06 | 36.64273 | -84.25556 | 36948 ft | 426 kts | 174° |
| 2026-05-09 00:07 | 36.58853 | -84.22534 | 36956 ft | 427 kts | 174° |
| 2026-05-09 00:07 | 36.53408 | -84.20018 | 36943 ft | 400 kts | 186° |
| 2026-05-09 00:07 | 36.50724 | -84.19508 | 36950 ft | 381 kts | 194° |
| 2026-05-09 00:08 | 36.48129 | -84.19465 | 36950 ft | 367 kts | 200° |
| 2026-05-09 00:08 | 36.43020 | -84.19689 | 36949 ft | 367 kts | 200° |
| 2026-05-09 00:09 | 36.37911 | -84.19904 | 36954 ft | 367 kts | 200° |
| 2026-05-09 00:09 | 36.32798 | -84.20110 | 36957 ft | 368 kts | 200° |
| 2026-05-09 00:10 | 36.27686 | -84.20306 | 36953 ft | 368 kts | 200° |
| 2026-05-09 00:10 | 36.22570 | -84.20500 | 36951 ft | 367 kts | 199° |
| 2026-05-09 00:11 | 36.17472 | -84.20698 | 36950 ft | 366 kts | 200° |
| 2026-05-09 00:11 | 36.12372 | -84.20901 | 36964 ft | 367 kts | 200° |
| 2026-05-09 00:12 | 36.07265 | -84.21103 | 36969 ft | 367 kts | 200° |
| 2026-05-09 00:12 | 36.02162 | -84.21300 | 36974 ft | 367 kts | 200° |
| 2026-05-09 00:13 | 35.97060 | -84.21495 | 36980 ft | 367 kts | 200° |
| 2026-05-09 00:13 | 35.91958 | -84.21694 | 36971 ft | 366 kts | 200° |
| 2026-05-09 00:14 | 35.86860 | -84.21890 | 36981 ft | 366 kts | 200° |
| 2026-05-09 00:14 | 35.81753 | -84.22087 | 37140 ft | 368 kts | 200° |
| 2026-05-09 00:14 | 35.79191 | -84.22188 | 37262 ft | 369 kts | 199° |
| 2026-05-09 00:15 | 35.76618 | -84.22290 | 37389 ft | 370 kts | 199° |
| 2026-05-09 00:15 | 35.74037 | -84.22392 | 37513 ft | 371 kts | 199° |
| 2026-05-09 00:15 | 35.71451 | -84.22494 | 37643 ft | 372 kts | 199° |
| 2026-05-09 00:15 | 35.68858 | -84.22597 | 37777 ft | 373 kts | 199° |
| 2026-05-09 00:16 | 35.66265 | -84.22700 | 37911 ft | 374 kts | 199° |
| 2026-05-09 00:16 | 35.63664 | -84.22797 | 38035 ft | 374 kts | 199° |
| 2026-05-09 00:16 | 35.61062 | -84.22891 | 38168 ft | 374 kts | 199° |
| 2026-05-09 00:16 | 35.58458 | -84.22984 | 38298 ft | 374 kts | 199° |
| 2026-05-09 00:17 | 35.55856 | -84.23080 | 38431 ft | 374 kts | 199° |
| 2026-05-09 00:17 | 35.53293 | -84.23179 | 38559 ft | 373 kts | 199° |
| 2026-05-09 00:17 | 35.50663 | -84.23282 | 38685 ft | 373 kts | 199° |
| 2026-05-09 00:17 | 35.48105 | -84.23382 | 38792 ft | 373 kts | 199° |
| 2026-05-09 00:18 | 35.45488 | -84.23482 | 38937 ft | 371 kts | 199° |
| 2026-05-09 00:18 | 35.40334 | -84.23686 | 38998 ft | 375 kts | 199° |
| 2026-05-09 00:19 | 35.34934 | -84.23342 | 38998 ft | 411 kts | 184° |
| 2026-05-09 00:19 | 35.32136 | -84.22202 | 39000 ft | 437 kts | 174° |
| 2026-05-09 00:19 | 35.29368 | -84.20744 | 39001 ft | 440 kts | 174° |
| 2026-05-09 00:20 | 35.23740 | -84.17749 | 39017 ft | 441 kts | 174° |
| 2026-05-09 00:20 | 35.18116 | -84.14768 | 39023 ft | 440 kts | 174° |
| 2026-05-09 00:21 | 35.12497 | -84.11829 | 39025 ft | 439 kts | 174° |
| 2026-05-09 00:21 | 35.06873 | -84.08901 | 39031 ft | 439 kts | 174° |
| 2026-05-09 00:22 | 35.01246 | -84.05972 | 39046 ft | 440 kts | 174° |
| 2026-05-09 00:22 | 34.95624 | -84.03042 | 39058 ft | 439 kts | 174° |
| 2026-05-09 00:23 | 34.90004 | -84.00124 | 39062 ft | 439 kts | 175° |
| 2026-05-09 00:23 | 34.84388 | -83.97205 | 39067 ft | 438 kts | 175° |
| 2026-05-09 00:24 | 34.78785 | -83.94305 | 39069 ft | 437 kts | 175° |
| 2026-05-09 00:24 | 34.73195 | -83.91415 | 39059 ft | 436 kts | 175° |
| 2026-05-09 00:25 | 34.67604 | -83.88528 | 39053 ft | 436 kts | 175° |
| 2026-05-09 00:25 | 34.62017 | -83.85632 | 39046 ft | 438 kts | 174° |
| 2026-05-09 00:26 | 34.56471 | -83.82434 | 38841 ft | 444 kts | 171° |
| 2026-05-09 00:26 | 34.53721 | -83.80721 | 38365 ft | 442 kts | 170° |
| 2026-05-09 00:26 | 34.51005 | -83.79001 | 37846 ft | 439 kts | 170° |
| 2026-05-09 00:26 | 34.48302 | -83.77300 | 37271 ft | 437 kts | 170° |
| 2026-05-09 00:27 | 34.45608 | -83.75634 | 37022 ft | 435 kts | 170° |
| 2026-05-09 00:27 | 34.40184 | -83.72368 | 37045 ft | 436 kts | 171° |
| 2026-05-09 00:28 | 34.34736 | -83.69133 | 37046 ft | 437 kts | 170° |
| 2026-05-09 00:28 | 34.29275 | -83.65869 | 37045 ft | 438 kts | 170° |
| 2026-05-09 00:29 | 34.23815 | -83.62590 | 37041 ft | 439 kts | 169° |
| 2026-05-09 00:29 | 34.18380 | -83.59323 | 37042 ft | 439 kts | 169° |
| 2026-05-09 00:30 | 34.12897 | -83.56053 | 37044 ft | 440 kts | 168° |
| 2026-05-09 00:30 | 34.07403 | -83.52777 | 37039 ft | 441 kts | 168° |
| 2026-05-09 00:31 | 34.01907 | -83.49499 | 37055 ft | 441 kts | 168° |
| 2026-05-09 00:31 | 33.96393 | -83.46215 | 37043 ft | 442 kts | 168° |
| 2026-05-09 00:32 | 33.90875 | -83.42921 | 37043 ft | 443 kts | 168° |
| 2026-05-09 00:32 | 33.85340 | -83.39629 | 37042 ft | 444 kts | 168° |
| 2026-05-09 00:33 | 33.79795 | -83.36357 | 37037 ft | 444 kts | 168° |
| 2026-05-09 00:33 | 33.74234 | -83.33075 | 37032 ft | 445 kts | 167° |
| 2026-05-09 00:34 | 33.68668 | -83.29793 | 37044 ft | 446 kts | 167° |
| 2026-05-09 00:34 | 33.63095 | -83.26488 | 37048 ft | 447 kts | 167° |
| 2026-05-09 00:35 | 33.57517 | -83.23185 | 37051 ft | 447 kts | 167° |
| 2026-05-09 00:35 | 33.51930 | -83.19900 | 37050 ft | 447 kts | 167° |
| 2026-05-09 00:36 | 33.46332 | -83.16636 | 37050 ft | 448 kts | 167° |
| 2026-05-09 00:36 | 33.40734 | -83.13364 | 37037 ft | 448 kts | 167° |
| 2026-05-09 00:37 | 33.35166 | -83.10089 | 37028 ft | 449 kts | 167° |
| 2026-05-09 00:37 | 33.29518 | -83.06784 | 37024 ft | 449 kts | 167° |
| 2026-05-09 00:38 | 33.23913 | -83.03516 | 37022 ft | 449 kts | 167° |
| 2026-05-09 00:38 | 33.18339 | -83.00254 | 37023 ft | 449 kts | 167° |
| 2026-05-09 00:39 | 33.12714 | -82.96985 | 37019 ft | 449 kts | 167° |
| 2026-05-09 00:39 | 33.07092 | -82.93710 | 37019 ft | 450 kts | 166° |
| 2026-05-09 00:40 | 33.01468 | -82.90438 | 37017 ft | 450 kts | 166° |
| 2026-05-09 00:40 | 32.95839 | -82.87173 | 37013 ft | 450 kts | 166° |
| 2026-05-09 00:41 | 32.88339 | -82.82830 | 37014 ft | 451 kts | 166° |
| 2026-05-09 00:41 | 32.85521 | -82.81198 | 36695 ft | 450 kts | 166° |
| 2026-05-09 00:41 | 32.82706 | -82.79573 | 36178 ft | 449 kts | 166° |
| 2026-05-09 00:42 | 32.79902 | -82.77957 | 35989 ft | 449 kts | 166° |
| 2026-05-09 00:42 | 32.77086 | -82.76334 | 36037 ft | 451 kts | 166° |
| 2026-05-09 00:42 | 32.71436 | -82.73079 | 36037 ft | 452 kts | 166° |
| 2026-05-09 00:43 | 32.65784 | -82.69820 | 36037 ft | 452 kts | 166° |
| 2026-05-09 00:43 | 32.60124 | -82.66564 | 36032 ft | 452 kts | 166° |
| 2026-05-09 00:44 | 32.54464 | -82.63311 | 36025 ft | 452 kts | 166° |
| 2026-05-09 00:44 | 32.48808 | -82.60073 | 36016 ft | 452 kts | 165° |
| 2026-05-09 00:45 | 32.43147 | -82.56839 | 36019 ft | 452 kts | 165° |
| 2026-05-09 00:45 | 32.37490 | -82.53602 | 36029 ft | 452 kts | 165° |
| 2026-05-09 00:46 | 32.31835 | -82.50372 | 36039 ft | 451 kts | 165° |
| 2026-05-09 00:46 | 32.26180 | -82.47153 | 36049 ft | 451 kts | 165° |
| 2026-05-09 00:47 | 32.20521 | -82.43938 | 36054 ft | 451 kts | 165° |
| 2026-05-09 00:47 | 32.14868 | -82.40722 | 36051 ft | 451 kts | 165° |
| 2026-05-09 00:48 | 32.09211 | -82.37509 | 36049 ft | 451 kts | 165° |
| 2026-05-09 00:48 | 32.03564 | -82.34272 | 36039 ft | 452 kts | 164° |
| 2026-05-09 00:49 | 31.97934 | -82.30974 | 36054 ft | 452 kts | 164° |
| 2026-05-09 00:49 | 31.92309 | -82.27663 | 36051 ft | 452 kts | 164° |
| 2026-05-09 00:50 | 31.86706 | -82.24395 | 36042 ft | 452 kts | 164° |
| 2026-05-09 00:50 | 31.81078 | -82.21119 | 36027 ft | 452 kts | 164° |
| 2026-05-09 00:51 | 31.75437 | -82.17850 | 36016 ft | 452 kts | 164° |
| 2026-05-09 00:51 | 31.69760 | -82.14562 | 36035 ft | 452 kts | 164° |
| 2026-05-09 00:52 | 31.64160 | -82.11322 | 36049 ft | 452 kts | 164° |
| 2026-05-09 00:52 | 31.58517 | -82.08061 | 36063 ft | 452 kts | 164° |
| 2026-05-09 00:53 | 31.52874 | -82.04806 | 36073 ft | 452 kts | 165° |
| 2026-05-09 00:53 | 31.47233 | -82.01545 | 36075 ft | 452 kts | 165° |
| 2026-05-09 00:54 | 31.41590 | -81.98287 | 36069 ft | 452 kts | 165° |
| 2026-05-09 00:54 | 31.35953 | -81.95055 | 36056 ft | 452 kts | 165° |
| 2026-05-09 00:55 | 31.30304 | -81.91817 | 36039 ft | 452 kts | 165° |
| 2026-05-09 00:55 | 31.24662 | -81.88576 | 36021 ft | 452 kts | 165° |
| 2026-05-09 00:56 | 31.19012 | -81.85335 | 36012 ft | 452 kts | 165° |
| 2026-05-09 00:56 | 31.13358 | -81.82106 | 36016 ft | 453 kts | 165° |
| 2026-05-09 00:57 | 31.07731 | -81.78906 | 36014 ft | 453 kts | 165° |
| 2026-05-09 00:57 | 31.02069 | -81.75678 | 36013 ft | 453 kts | 165° |
| 2026-05-09 00:58 | 30.96407 | -81.72438 | 36012 ft | 453 kts | 165° |
| 2026-05-09 00:58 | 30.90737 | -81.69213 | 36009 ft | 453 kts | 165° |
| 2026-05-09 00:59 | 30.85064 | -81.65994 | 35714 ft | 457 kts | 165° |
| 2026-05-09 00:59 | 30.83315 | -81.65001 | 35291 ft | 459 kts | 164° |
| 2026-05-09 00:59 | 30.80464 | -81.63282 | 34584 ft | 464 kts | 161° |
| 2026-05-09 01:00 | 30.77653 | -81.61432 | 33635 ft | 475 kts | 159° |
| 2026-05-09 01:00 | 30.74821 | -81.59439 | 32918 ft | 477 kts | 157° |
| 2026-05-09 01:00 | 30.72015 | -81.57398 | 32324 ft | 475 kts | 157° |
| 2026-05-09 01:00 | 30.69228 | -81.55366 | 31746 ft | 471 kts | 157° |
| 2026-05-09 01:01 | 30.66442 | -81.53366 | 31244 ft | 467 kts | 158° |
| 2026-05-09 01:01 | 30.63679 | -81.51420 | 30664 ft | 464 kts | 158° |
| 2026-05-09 01:01 | 30.60921 | -81.49509 | 30156 ft | 460 kts | 158° |
| 2026-05-09 01:01 | 30.58185 | -81.47630 | 29686 ft | 455 kts | 158° |
| 2026-05-09 01:02 | 30.55464 | -81.45767 | 29149 ft | 451 kts | 158° |
| 2026-05-09 01:02 | 30.52782 | -81.43927 | 28704 ft | 445 kts | 158° |
| 2026-05-09 01:02 | 30.50134 | -81.42105 | 28261 ft | 440 kts | 158° |
| 2026-05-09 01:02 | 30.47510 | -81.40295 | 27816 ft | 436 kts | 158° |
| 2026-05-09 01:03 | 30.44916 | -81.38502 | 27362 ft | 432 kts | 158° |
| 2026-05-09 01:03 | 30.42351 | -81.36730 | 26906 ft | 428 kts | 158° |
| 2026-05-09 01:03 | 30.39795 | -81.34971 | 26440 ft | 426 kts | 158° |
| 2026-05-09 01:03 | 30.37255 | -81.33226 | 25980 ft | 423 kts | 158° |
| 2026-05-09 01:04 | 30.34720 | -81.31489 | 25498 ft | 422 kts | 158° |
| 2026-05-09 01:04 | 30.32200 | -81.29763 | 25017 ft | 420 kts | 158° |
| 2026-05-09 01:04 | 30.29681 | -81.28072 | 24518 ft | 416 kts | 162° |
| 2026-05-09 01:04 | 30.27045 | -81.26843 | 24028 ft | 401 kts | 174° |
| 2026-05-09 01:05 | 30.24361 | -81.26246 | 23629 ft | 384 kts | 185° |
| 2026-05-09 01:05 | 30.21759 | -81.26072 | 23158 ft | 378 kts | 187° |
| 2026-05-09 01:05 | 30.16547 | -81.25754 | 22218 ft | 372 kts | 186° |
| 2026-05-09 01:06 | 30.13975 | -81.25593 | 21778 ft | 369 kts | 186° |
| 2026-05-09 01:06 | 30.11426 | -81.25433 | 21346 ft | 366 kts | 186° |
| 2026-05-09 01:06 | 30.08894 | -81.25277 | 20902 ft | 363 kts | 186° |
| 2026-05-09 01:06 | 30.06381 | -81.25124 | 20475 ft | 360 kts | 186° |
| 2026-05-09 01:07 | 30.03891 | -81.24974 | 20043 ft | 357 kts | 186° |
| 2026-05-09 01:07 | 30.01413 | -81.24825 | 19626 ft | 355 kts | 185° |
| 2026-05-09 01:07 | 29.98952 | -81.24675 | 19196 ft | 353 kts | 185° |
| 2026-05-09 01:07 | 29.96502 | -81.24526 | 18786 ft | 352 kts | 185° |
| 2026-05-09 01:08 | 29.94061 | -81.24378 | 18387 ft | 350 kts | 185° |
| 2026-05-09 01:08 | 29.91636 | -81.24232 | 17935 ft | 348 kts | 185° |
| 2026-05-09 01:08 | 29.89227 | -81.24115 | 17498 ft | 345 kts | 185° |
| 2026-05-09 01:08 | 29.86842 | -81.24025 | 17076 ft | 342 kts | 185° |
| 2026-05-09 01:09 | 29.84466 | -81.23947 | 16662 ft | 340 kts | 185° |
| 2026-05-09 01:09 | 29.82109 | -81.23873 | 16263 ft | 338 kts | 185° |
| 2026-05-09 01:09 | 29.79765 | -81.23798 | 15880 ft | 335 kts | 185° |
| 2026-05-09 01:09 | 29.77441 | -81.23721 | 15493 ft | 333 kts | 184° |
| 2026-05-09 01:10 | 29.75130 | -81.23643 | 15092 ft | 331 kts | 184° |
| 2026-05-09 01:10 | 29.72858 | -81.23561 | 14727 ft | 329 kts | 184° |
| 2026-05-09 01:10 | 29.70575 | -81.23476 | 14353 ft | 327 kts | 184° |
| 2026-05-09 01:10 | 29.68305 | -81.23392 | 13981 ft | 325 kts | 183° |
| 2026-05-09 01:11 | 29.66044 | -81.23309 | 13614 ft | 323 kts | 183° |
| 2026-05-09 01:11 | 29.63841 | -81.23216 | 13479 ft | 312 kts | 183° |
| 2026-05-09 01:11 | 29.61703 | -81.23119 | 13325 ft | 303 kts | 182° |
| 2026-05-09 01:11 | 29.59612 | -81.23024 | 13035 ft | 299 kts | 182° |
| 2026-05-09 01:12 | 29.57546 | -81.22938 | 12701 ft | 297 kts | 182° |
| 2026-05-09 01:12 | 29.55489 | -81.22859 | 12341 ft | 295 kts | 182° |
| 2026-05-09 01:12 | 29.53442 | -81.22788 | 12048 ft | 292 kts | 182° |
| 2026-05-09 01:12 | 29.51401 | -81.22727 | 11826 ft | 294 kts | 182° |
| 2026-05-09 01:13 | 29.49363 | -81.22673 | 11499 ft | 292 kts | 182° |
| 2026-05-09 01:13 | 29.47339 | -81.22628 | 11160 ft | 290 kts | 182° |
| 2026-05-09 01:13 | 29.45326 | -81.22567 | 10874 ft | 289 kts | 181° |
| 2026-05-09 01:13 | 29.43314 | -81.22450 | 10637 ft | 290 kts | 180° |
| 2026-05-09 01:14 | 29.41306 | -81.22309 | 10407 ft | 289 kts | 179° |
| 2026-05-09 01:14 | 29.39306 | -81.22164 | 10175 ft | 288 kts | 179° |
| 2026-05-09 01:14 | 29.37309 | -81.22020 | 9950 ft | 287 kts | 179° |
| 2026-05-09 01:14 | 29.35318 | -81.21879 | 9826 ft | 287 kts | 179° |
| 2026-05-09 01:15 | 29.33329 | -81.21745 | 9700 ft | 286 kts | 179° |
| 2026-05-09 01:15 | 29.31343 | -81.21614 | 9573 ft | 286 kts | 179° |
| 2026-05-09 01:15 | 29.29360 | -81.21482 | 9450 ft | 285 kts | 179° |
| 2026-05-09 01:15 | 29.27381 | -81.21352 | 9324 ft | 285 kts | 179° |
| 2026-05-09 01:16 | 29.25412 | -81.21224 | 9087 ft | 281 kts | 179° |
| 2026-05-09 01:16 | 29.23462 | -81.21096 | 8760 ft | 281 kts | 179° |
| 2026-05-09 01:16 | 29.21511 | -81.20968 | 8412 ft | 281 kts | 179° |
| 2026-05-09 01:17 | 29.17623 | -81.20704 | 7727 ft | 279 kts | 179° |
| 2026-05-09 01:17 | 29.15685 | -81.20571 | 7375 ft | 278 kts | 179° |
| 2026-05-09 01:17 | 29.13764 | -81.20440 | 7035 ft | 277 kts | 179° |
| 2026-05-09 01:17 | 29.11847 | -81.20312 | 6696 ft | 275 kts | 179° |
| 2026-05-09 01:18 | 29.09936 | -81.20239 | 6347 ft | 274 kts | 180° |
| 2026-05-09 01:18 | 29.08061 | -81.20218 | 5997 ft | 273 kts | 181° |
| 2026-05-09 01:18 | 29.06165 | -81.20215 | 5654 ft | 272 kts | 181° |
| 2026-05-09 01:18 | 29.04270 | -81.20215 | 5317 ft | 272 kts | 181° |
| 2026-05-09 01:19 | 29.02389 | -81.20326 | 5048 ft | 269 kts | 191° |
| 2026-05-09 01:19 | 29.00580 | -81.20853 | 5014 ft | 269 kts | 196° |
| 2026-05-09 01:19 | 28.98780 | -81.21410 | 5013 ft | 261 kts | 196° |
| 2026-05-09 01:19 | 28.97086 | -81.21928 | 5009 ft | 243 kts | 196° |
| 2026-05-09 01:20 | 28.95492 | -81.22404 | 5007 ft | 233 kts | 195° |
| 2026-05-09 01:20 | 28.93925 | -81.22865 | 5004 ft | 232 kts | 196° |
| 2026-05-09 01:20 | 28.92378 | -81.23367 | 4990 ft | 230 kts | 205° |
| 2026-05-09 01:20 | 28.91154 | -81.24468 | 4729 ft | 225 kts | 237° |
| 2026-05-09 01:21 | 28.90497 | -81.26082 | 4340 ft | 226 kts | 251° |
| 2026-05-09 01:21 | 28.90005 | -81.27784 | 3970 ft | 227 kts | 252° |
| 2026-05-09 01:21 | 28.89536 | -81.29508 | 3620 ft | 228 kts | 253° |
| 2026-05-09 01:21 | 28.89073 | -81.31240 | 3267 ft | 229 kts | 253° |
| 2026-05-09 01:22 | 28.88614 | -81.32972 | 3020 ft | 227 kts | 253° |
| 2026-05-09 01:22 | 28.88155 | -81.34715 | 3002 ft | 231 kts | 253° |
| 2026-05-09 01:22 | 28.87696 | -81.36466 | 2993 ft | 232 kts | 253° |
| 2026-05-09 01:22 | 28.87231 | -81.38236 | 2997 ft | 232 kts | 253° |
| 2026-05-09 01:23 | 28.86769 | -81.39995 | 2820 ft | 231 kts | 253° |
| 2026-05-09 01:23 | 28.86280 | -81.41740 | 2478 ft | 231 kts | 244° |
| 2026-05-09 01:23 | 28.85275 | -81.43118 | 2144 ft | 226 kts | 209° |
| 2026-05-09 01:23 | 28.83810 | -81.43627 | 1814 ft | 221 kts | 179° |
| 2026-05-09 01:24 | 28.82285 | -81.43589 | 1598 ft | 218 kts | 174° |
| 2026-05-09 01:24 | 28.80755 | -81.43447 | 1587 ft | 222 kts | 169° |
| 2026-05-09 01:24 | 28.79378 | -81.42762 | 1593 ft | 217 kts | 136° |
| 2026-05-09 01:24 | 28.78475 | -81.41417 | 1594 ft | 209 kts | 112° |
| 2026-05-09 01:25 | 28.78140 | -81.39876 | 1591 ft | 197 kts | 91° |
| 2026-05-09 01:25 | 28.78141 | -81.38331 | 1597 ft | 191 kts | 89° |
| 2026-05-09 01:25 | 28.78146 | -81.36895 | 1627 ft | 172 kts | 89° |
| 2026-05-09 01:25 | 28.78150 | -81.35608 | 1590 ft | 153 kts | 89° |
| 2026-05-09 01:26 | 28.78153 | -81.34440 | 1524 ft | 144 kts | 89° |
| 2026-05-09 01:26 | 28.78156 | -81.33307 | 1401 ft | 142 kts | 89° |
| 2026-05-09 01:26 | 28.78159 | -81.32201 | 1238 ft | 139 kts | 91° |
| 2026-05-09 01:26 | 28.78161 | -81.31458 | 1124 ft | 143 kts | 89° |
| 2026-05-09 01:27 | 28.78163 | -81.30333 | 964 ft | 141 kts | 91° |
| 2026-05-09 01:27 | 28.78166 | -81.29216 | 772 ft | 140 kts | 87° |
| 2026-05-09 01:27 | 28.78168 | -81.28104 | 611 ft | 142 kts | 87° |
| 2026-05-09 01:27 | 28.78170 | -81.26978 | 412 ft | 140 kts | 84° |
| 2026-05-09 01:28 | 28.78173 | -81.25867 | 209 ft | 142 kts | 86° |
| 2026-05-09 01:28 | 28.78175 | -81.24749 | 69 ft | 136 kts | 87° |
| 2026-05-09 01:28 | 28.78180 | -81.23846 | 59 ft | 89 kts | 90° |
| 2026-05-09 01:28 | 28.78178 | -81.23353 | 56 ft | 30 kts | 88° |
| 2026-05-09 01:29 | 28.78178 | -81.23129 | 60 ft | 27 kts | 89° |
| 2026-05-09 01:29 | 28.78179 | -81.22918 | 54 ft | 26 kts | 90° |
| 2026-05-09 01:29 | 28.78138 | -81.22802 | 62 ft | 11 kts | 155° |
| 2026-05-09 01:29 | 28.78072 | -81.22797 | 58 ft | 8 kts | 180° |
| 2026-05-09 01:30 | 28.78057 | -81.22797 | 61 ft | 0 kts | 180° |
| 2026-05-09 01:30 | 28.78035 | -81.22800 | 57 ft | 9 kts | 196° |
| 2026-05-09 01:31 | 28.78012 | -81.22857 | 61 ft | 8 kts | 268° |
| 2026-05-09 01:31 | 28.78012 | -81.22934 | 59 ft | 13 kts | 269° |
| 2026-05-09 01:31 | 28.78012 | -81.23030 | 62 ft | 12 kts | 270° |
| 2026-05-09 01:31 | 28.78012 | -81.23116 | 58 ft | 10 kts | 270° |
| 2026-05-09 01:32 | 28.78011 | -81.23191 | 58 ft | 9 kts | 270° |
| 2026-05-09 01:32 | 28.78011 | -81.23257 | 63 ft | 8 kts | 269° |
| 2026-05-09 01:32 | 28.78011 | -81.23356 | 62 ft | 14 kts | 270° |
| 2026-05-09 01:32 | 28.78015 | -81.23453 | 64 ft | 11 kts | 287° |
| 2026-05-09 01:33 | 28.78064 | -81.23508 | 60 ft | 10 kts | 289° |
| 2026-05-09 01:33 | 28.78066 | -81.23578 | 64 ft | 9 kts | 270° |
| 2026-05-09 01:33 | 28.78015 | -81.23635 | 59 ft | 14 kts | 178° |
| 2026-05-09 01:33 | 28.77927 | -81.23634 | 61 ft | 12 kts | 180° |
| 2026-05-09 01:34 | 28.77848 | -81.23634 | 60 ft | 13 kts | 179° |
| 2026-05-09 01:34 | 28.77765 | -81.23666 | 64 ft | 12 kts | 250° |
| 2026-05-09 01:34 | 28.77764 | -81.23751 | 64 ft | 10 kts | 269° |
| 2026-05-09 01:34 | 28.77764 | -81.23821 | 64 ft | 8 kts | 270° |
| 2026-05-09 01:35 | 28.77763 | -81.23874 | 64 ft | 5 kts | 269° |
| 2026-05-09 01:35 | 28.77763 | -81.23961 | 64 ft | 15 kts | 270° |
| 2026-05-09 01:35 | 28.77728 | -81.24019 | 59 ft | 8 kts | 191° |
| 2026-05-09 01:35 | 28.77685 | -81.24022 | 58 ft | 5 kts | 182° |
| 2026-05-09 01:36 | 28.77649 | -81.24025 | 60 ft | 3 kts | 205° |
| 2026-05-09 01:36 | 28.77641 | -81.24043 | 58 ft | 2 kts | 243° |
| 2026-05-09 01:36 | 28.77638 | -81.24056 | 64 ft | 0 kts | 261° |